sensor_id;sensor_type;location;lat;lon;timestamp;temperature;humidity
72126;SHT31;59999;51.676;22.650;2023-06-14T00:01:01;12.57;88.61
72126;SHT31;59999;51.676;22.650;2023-06-14T00:03:43;12.53;88.65
72126;SHT31;59999;51.676;22.650;2023-06-14T00:06:08;12.56;88.58
72126;SHT31;59999;51.676;22.650;2023-06-14T00:08:34;12.57;88.63
72126;SHT31;59999;51.676;22.650;2023-06-14T00:11:00;12.57;88.63
72126;SHT31;59999;51.676;22.650;2023-06-14T00:13:27;12.57;88.58
72126;SHT31;59999;51.676;22.650;2023-06-14T00:15:53;12.59;88.64
72126;SHT31;59999;51.676;22.650;2023-06-14T00:18:21;12.59;88.62
72126;SHT31;59999;51.676;22.650;2023-06-14T00:20:50;12.57;88.71
72126;SHT31;59999;51.676;22.650;2023-06-14T00:23:16;12.57;88.82
72126;SHT31;59999;51.676;22.650;2023-06-14T00:25:42;12.57;88.84
72126;SHT31;59999;51.676;22.650;2023-06-14T00:28:08;12.55;88.75
72126;SHT31;59999;51.676;22.650;2023-06-14T00:30:34;12.56;88.87
72126;SHT31;59999;51.676;22.650;2023-06-14T00:33:01;12.55;88.96
72126;SHT31;59999;51.676;22.650;2023-06-14T00:35:26;12.53;89.01
72126;SHT31;59999;51.676;22.650;2023-06-14T00:37:53;12.53;89.05
72126;SHT31;59999;51.676;22.650;2023-06-14T00:40:20;12.53;88.96
72126;SHT31;59999;51.676;22.650;2023-06-14T00:42:47;12.52;88.95
72126;SHT31;59999;51.676;22.650;2023-06-14T00:45:13;12.50;89.02
72126;SHT31;59999;51.676;22.650;2023-06-14T00:47:41;12.50;89.15
72126;SHT31;59999;51.676;22.650;2023-06-14T00:50:09;12.52;89.16
72126;SHT31;59999;51.676;22.650;2023-06-14T00:52:35;12.48;89.30
72126;SHT31;59999;51.676;22.650;2023-06-14T00:55:02;12.50;89.23
72126;SHT31;59999;51.676;22.650;2023-06-14T00:57:28;12.49;89.37
72126;SHT31;59999;51.676;22.650;2023-06-14T00:59:57;12.53;89.37
72126;SHT31;59999;51.676;22.650;2023-06-14T01:02:23;12.49;89.40
72126;SHT31;59999;51.676;22.650;2023-06-14T01:04:52;12.53;89.38
72126;SHT31;59999;51.676;22.650;2023-06-14T01:07:40;12.52;89.31
72126;SHT31;59999;51.676;22.650;2023-06-14T01:15:37;12.56;89.27
72126;SHT31;59999;51.676;22.650;2023-06-14T01:18:04;12.53;89.18
72126;SHT31;59999;51.676;22.650;2023-06-14T01:20:34;12.55;89.25
72126;SHT31;59999;51.676;22.650;2023-06-14T01:23:02;12.53;89.23
72126;SHT31;59999;51.676;22.650;2023-06-14T01:25:28;12.53;89.29
72126;SHT31;59999;51.676;22.650;2023-06-14T01:28:03;12.52;89.30
72126;SHT31;59999;51.676;22.650;2023-06-14T01:30:30;12.50;89.27
72126;SHT31;59999;51.676;22.650;2023-06-14T01:32:59;12.50;89.13
72126;SHT31;59999;51.676;22.650;2023-06-14T01:35:25;12.49;89.22
72126;SHT31;59999;51.676;22.650;2023-06-14T01:37:52;12.49;89.21
72126;SHT31;59999;51.676;22.650;2023-06-14T01:40:19;12.49;89.18
72126;SHT31;59999;51.676;22.650;2023-06-14T01:42:47;12.50;89.15
72126;SHT31;59999;51.676;22.650;2023-06-14T01:45:15;12.52;89.12
72126;SHT31;59999;51.676;22.650;2023-06-14T01:47:43;12.50;89.05
72126;SHT31;59999;51.676;22.650;2023-06-14T01:50:10;12.50;89.08
72126;SHT31;59999;51.676;22.650;2023-06-14T01:52:37;12.53;89.05
72126;SHT31;59999;51.676;22.650;2023-06-14T01:55:05;12.55;89.11
72126;SHT31;59999;51.676;22.650;2023-06-14T01:57:31;12.56;88.92
72126;SHT31;59999;51.676;22.650;2023-06-14T01:59:57;12.55;88.81
72126;SHT31;59999;51.676;22.650;2023-06-14T02:02:23;12.56;88.72
72126;SHT31;59999;51.676;22.650;2023-06-14T02:04:49;12.56;88.87
72126;SHT31;59999;51.676;22.650;2023-06-14T02:07:15;12.56;88.86
72126;SHT31;59999;51.676;22.650;2023-06-14T02:09:41;12.53;88.75
72126;SHT31;59999;51.676;22.650;2023-06-14T02:12:08;12.55;88.91
72126;SHT31;59999;51.676;22.650;2023-06-14T02:14:34;12.55;88.79
72126;SHT31;59999;51.676;22.650;2023-06-14T02:17:00;12.57;88.80
72126;SHT31;59999;51.676;22.650;2023-06-14T02:19:26;12.57;88.68
72126;SHT31;59999;51.676;22.650;2023-06-14T02:21:52;12.56;88.54
72126;SHT31;59999;51.676;22.650;2023-06-14T02:24:18;12.57;88.57
72126;SHT31;59999;51.676;22.650;2023-06-14T02:26:44;12.55;88.60
72126;SHT31;59999;51.676;22.650;2023-06-14T02:29:10;12.55;88.66
72126;SHT31;59999;51.676;22.650;2023-06-14T02:31:38;12.55;88.69
72126;SHT31;59999;51.676;22.650;2023-06-14T02:34:04;12.59;88.74
72126;SHT31;59999;51.676;22.650;2023-06-14T02:36:30;12.55;88.72
72126;SHT31;59999;51.676;22.650;2023-06-14T02:38:57;12.55;88.76
72126;SHT31;59999;51.676;22.650;2023-06-14T02:41:26;12.55;88.66
72126;SHT31;59999;51.676;22.650;2023-06-14T02:43:53;12.55;88.74
72126;SHT31;59999;51.676;22.650;2023-06-14T02:46:19;12.53;88.85
72126;SHT31;59999;51.676;22.650;2023-06-14T02:48:45;12.52;88.87
72126;SHT31;59999;51.676;22.650;2023-06-14T02:51:11;12.49;89.02
72126;SHT31;59999;51.676;22.650;2023-06-14T02:53:38;12.50;89.05
72126;SHT31;59999;51.676;22.650;2023-06-14T02:56:04;12.49;89.06
72126;SHT31;59999;51.676;22.650;2023-06-14T02:58:30;12.49;89.03
72126;SHT31;59999;51.676;22.650;2023-06-14T03:00:56;12.48;89.12
72126;SHT31;59999;51.676;22.650;2023-06-14T03:03:22;12.49;89.15
72126;SHT31;59999;51.676;22.650;2023-06-14T03:05:50;12.48;89.34
72126;SHT31;59999;51.676;22.650;2023-06-14T03:08:17;12.53;89.25
72126;SHT31;59999;51.676;22.650;2023-06-14T03:10:48;12.49;89.15
72126;SHT31;59999;51.676;22.650;2023-06-14T03:13:15;12.52;89.20
72126;SHT31;59999;51.676;22.650;2023-06-14T03:15:47;12.56;89.13
72126;SHT31;59999;51.676;22.650;2023-06-14T03:18:16;12.59;88.94
72126;SHT31;59999;51.676;22.650;2023-06-14T03:20:42;12.59;89.00
72126;SHT31;59999;51.676;22.650;2023-06-14T03:23:11;12.66;88.89
72126;SHT31;59999;51.676;22.650;2023-06-14T03:25:38;12.67;88.86
72126;SHT31;59999;51.676;22.650;2023-06-14T03:28:06;12.73;88.62
72126;SHT31;59999;51.676;22.650;2023-06-14T03:30:32;12.77;88.55
72126;SHT31;59999;51.676;22.650;2023-06-14T03:32:58;12.80;88.62
72126;SHT31;59999;51.676;22.650;2023-06-14T03:35:28;12.89;88.44
72126;SHT31;59999;51.676;22.650;2023-06-14T03:37:54;12.91;88.34
72126;SHT31;59999;51.676;22.650;2023-06-14T03:40:21;13.00;88.36
72126;SHT31;59999;51.676;22.650;2023-06-14T03:42:47;13.07;88.04
72126;SHT31;59999;51.676;22.650;2023-06-14T03:45:13;13.12;87.87
72126;SHT31;59999;51.676;22.650;2023-06-14T03:47:39;13.18;87.87
72126;SHT31;59999;51.676;22.650;2023-06-14T03:50:05;13.28;87.50
72126;SHT31;59999;51.676;22.650;2023-06-14T03:52:32;13.34;86.83
72126;SHT31;59999;51.676;22.650;2023-06-14T03:54:59;13.35;86.52
72126;SHT31;59999;51.676;22.650;2023-06-14T03:57:26;13.37;86.53
72126;SHT31;59999;51.676;22.650;2023-06-14T03:59:52;13.39;86.34
72126;SHT31;59999;51.676;22.650;2023-06-14T04:02:18;13.45;86.17
72126;SHT31;59999;51.676;22.650;2023-06-14T04:04:44;13.48;86.05
72126;SHT31;59999;51.676;22.650;2023-06-14T04:07:16;13.54;86.04
72126;SHT31;59999;51.676;22.650;2023-06-14T04:09:45;13.59;86.13
72126;SHT31;59999;51.676;22.650;2023-06-14T04:12:11;13.66;85.82
72126;SHT31;59999;51.676;22.650;2023-06-14T04:14:39;13.68;85.62
72126;SHT31;59999;51.676;22.650;2023-06-14T04:17:05;13.72;85.65
72126;SHT31;59999;51.676;22.650;2023-06-14T04:19:31;13.73;85.38
72126;SHT31;59999;51.676;22.650;2023-06-14T04:21:58;13.72;85.36
72126;SHT31;59999;51.676;22.650;2023-06-14T04:24:25;13.63;84.63
72126;SHT31;59999;51.676;22.650;2023-06-14T04:27:00;13.57;85.40
72126;SHT31;59999;51.676;22.650;2023-06-14T04:29:27;13.58;85.77
72126;SHT31;59999;51.676;22.650;2023-06-14T04:31:55;13.63;85.52
72126;SHT31;59999;51.676;22.650;2023-06-14T04:34:26;13.72;85.14
72126;SHT31;59999;51.676;22.650;2023-06-14T04:36:56;13.82;84.30
72126;SHT31;59999;51.676;22.650;2023-06-14T04:39:22;13.85;84.32
72126;SHT31;59999;51.676;22.650;2023-06-14T04:41:49;13.95;83.64
72126;SHT31;59999;51.676;22.650;2023-06-14T04:44:19;14.00;83.84
72126;SHT31;59999;51.676;22.650;2023-06-14T04:46:49;14.05;83.32
72126;SHT31;59999;51.676;22.650;2023-06-14T04:49:16;14.13;83.57
72126;SHT31;59999;51.676;22.650;2023-06-14T04:51:43;14.20;83.09
72126;SHT31;59999;51.676;22.650;2023-06-14T04:54:09;14.26;82.98
72126;SHT31;59999;51.676;22.650;2023-06-14T04:56:42;14.31;82.45
72126;SHT31;59999;51.676;22.650;2023-06-14T04:59:09;14.38;82.17
72126;SHT31;59999;51.676;22.650;2023-06-14T05:01:37;14.40;81.86
72126;SHT31;59999;51.676;22.650;2023-06-14T05:04:03;14.48;81.99
72126;SHT31;59999;51.676;22.650;2023-06-14T05:06:30;14.57;81.72
72126;SHT31;59999;51.676;22.650;2023-06-14T05:08:56;14.51;81.19
72126;SHT31;59999;51.676;22.650;2023-06-14T05:11:22;14.57;81.18
72126;SHT31;59999;51.676;22.650;2023-06-14T05:13:52;14.69;80.27
72126;SHT31;59999;51.676;22.650;2023-06-14T05:16:18;14.71;80.03
72126;SHT31;59999;51.676;22.650;2023-06-14T05:18:45;14.79;81.18
72126;SHT31;59999;51.676;22.650;2023-06-14T05:21:13;14.82;80.19
72126;SHT31;59999;51.676;22.650;2023-06-14T05:23:43;14.89;79.64
72126;SHT31;59999;51.676;22.650;2023-06-14T05:26:10;14.95;80.72
72126;SHT31;59999;51.676;22.650;2023-06-14T05:28:36;14.96;80.39
72126;SHT31;59999;51.676;22.650;2023-06-14T05:31:03;14.96;79.84
72126;SHT31;59999;51.676;22.650;2023-06-14T05:33:29;14.95;79.38
72126;SHT31;59999;51.676;22.650;2023-06-14T05:35:55;14.89;79.84
72126;SHT31;59999;51.676;22.650;2023-06-14T05:38:21;14.95;80.37
72126;SHT31;59999;51.676;22.650;2023-06-14T05:40:47;14.95;80.20
72126;SHT31;59999;51.676;22.650;2023-06-14T05:43:13;14.98;80.61
72126;SHT31;59999;51.676;22.650;2023-06-14T05:45:39;15.05;80.73
72126;SHT31;59999;51.676;22.650;2023-06-14T05:48:05;15.14;79.59
72126;SHT31;59999;51.676;22.650;2023-06-14T05:50:31;15.18;79.80
72126;SHT31;59999;51.676;22.650;2023-06-14T05:52:57;15.22;79.67
72126;SHT31;59999;51.676;22.650;2023-06-14T05:55:23;15.33;79.35
72126;SHT31;59999;51.676;22.650;2023-06-14T05:57:50;15.37;78.49
72126;SHT31;59999;51.676;22.650;2023-06-14T06:00:17;15.37;79.26
72126;SHT31;59999;51.676;22.650;2023-06-14T06:02:44;15.39;77.97
72126;SHT31;59999;51.676;22.650;2023-06-14T06:05:11;15.47;78.59
72126;SHT31;59999;51.676;22.650;2023-06-14T06:07:38;15.54;79.28
72126;SHT31;59999;51.676;22.650;2023-06-14T06:10:06;15.67;78.69
72126;SHT31;59999;51.676;22.650;2023-06-14T06:12:32;15.80;76.55
72126;SHT31;59999;51.676;22.650;2023-06-14T06:14:59;15.74;77.84
72126;SHT31;59999;51.676;22.650;2023-06-14T06:17:26;15.81;77.99
72126;SHT31;59999;51.676;22.650;2023-06-14T06:19:52;15.92;76.40
72126;SHT31;59999;51.676;22.650;2023-06-14T06:22:18;16.04;76.58
72126;SHT31;59999;51.676;22.650;2023-06-14T06:24:44;15.90;75.92
72126;SHT31;59999;51.676;22.650;2023-06-14T06:27:10;15.82;76.39
72126;SHT31;59999;51.676;22.650;2023-06-14T06:29:38;15.97;77.29
72126;SHT31;59999;51.676;22.650;2023-06-14T06:32:04;16.13;76.01
72126;SHT31;59999;51.676;22.650;2023-06-14T06:34:31;16.29;75.59
72126;SHT31;59999;51.676;22.650;2023-06-14T06:36:56;16.47;74.76
72126;SHT31;59999;51.676;22.650;2023-06-14T06:39:23;16.36;74.04
72126;SHT31;59999;51.676;22.650;2023-06-14T06:41:48;16.43;74.73
72126;SHT31;59999;51.676;22.650;2023-06-14T06:44:15;16.47;75.13
72126;SHT31;59999;51.676;22.650;2023-06-14T06:46:40;16.49;74.89
72126;SHT31;59999;51.676;22.650;2023-06-14T06:49:09;16.46;74.04
72126;SHT31;59999;51.676;22.650;2023-06-14T06:51:40;16.43;74.48
72126;SHT31;59999;51.676;22.650;2023-06-14T06:54:07;16.45;74.70
72126;SHT31;59999;51.676;22.650;2023-06-14T06:56:35;16.59;74.96
72126;SHT31;59999;51.676;22.650;2023-06-14T06:59:01;16.52;73.61
72126;SHT31;59999;51.676;22.650;2023-06-14T07:01:27;16.50;74.69
72126;SHT31;59999;51.676;22.650;2023-06-14T07:03:55;16.60;73.80
72126;SHT31;59999;51.676;22.650;2023-06-14T07:06:21;16.74;74.25
72126;SHT31;59999;51.676;22.650;2023-06-14T07:08:47;16.81;74.53
72126;SHT31;59999;51.676;22.650;2023-06-14T07:11:16;16.78;73.66
72126;SHT31;59999;51.676;22.650;2023-06-14T07:13:42;16.60;73.46
72126;SHT31;59999;51.676;22.650;2023-06-14T07:16:08;16.52;75.09
72126;SHT31;59999;51.676;22.650;2023-06-14T07:18:34;16.74;76.07
72126;SHT31;59999;51.676;22.650;2023-06-14T07:21:01;16.97;74.12
72126;SHT31;59999;51.676;22.650;2023-06-14T07:23:28;17.24;74.90
72126;SHT31;59999;51.676;22.650;2023-06-14T07:25:53;17.47;71.14
72126;SHT31;59999;51.676;22.650;2023-06-14T07:28:20;17.55;72.54
72126;SHT31;59999;51.676;22.650;2023-06-14T07:30:46;17.61;71.78
72126;SHT31;59999;51.676;22.650;2023-06-14T07:33:14;17.70;71.26
72126;SHT31;59999;51.676;22.650;2023-06-14T07:35:40;17.65;72.26
72126;SHT31;59999;51.676;22.650;2023-06-14T07:38:06;17.73;71.54
72126;SHT31;59999;51.676;22.650;2023-06-14T07:40:32;17.65;71.89
72126;SHT31;59999;51.676;22.650;2023-06-14T07:42:58;17.76;71.42
72126;SHT31;59999;51.676;22.650;2023-06-14T07:45:24;17.94;72.42
72126;SHT31;59999;51.676;22.650;2023-06-14T07:47:50;18.28;69.70
72126;SHT31;59999;51.676;22.650;2023-06-14T07:50:17;18.66;71.17
72126;SHT31;59999;51.676;22.650;2023-06-14T07:52:43;18.89;68.94
72126;SHT31;59999;51.676;22.650;2023-06-14T07:55:09;18.98;67.16
72126;SHT31;59999;51.676;22.650;2023-06-14T07:57:35;19.03;66.17
72126;SHT31;59999;51.676;22.650;2023-06-14T08:00:03;18.99;66.13
72126;SHT31;59999;51.676;22.650;2023-06-14T08:02:32;19.07;65.97
72126;SHT31;59999;51.676;22.650;2023-06-14T08:04:58;19.16;65.53
72126;SHT31;59999;51.676;22.650;2023-06-14T08:07:24;19.14;65.10
72126;SHT31;59999;51.676;22.650;2023-06-14T08:10:15;19.24;64.40
72126;SHT31;59999;51.676;22.650;2023-06-14T08:13:06;19.37;63.99
72126;SHT31;59999;51.676;22.650;2023-06-14T08:15:57;19.35;63.56
72126;SHT31;59999;51.676;22.650;2023-06-14T08:18:49;18.96;64.88
72126;SHT31;59999;51.676;22.650;2023-06-14T08:21:15;18.71;63.12
72126;SHT31;59999;51.676;22.650;2023-06-14T08:23:41;18.66;63.54
72126;SHT31;59999;51.676;22.650;2023-06-14T08:26:09;18.75;63.99
72126;SHT31;59999;51.676;22.650;2023-06-14T08:28:35;18.98;65.12
72126;SHT31;59999;51.676;22.650;2023-06-14T08:31:01;19.20;62.99
72126;SHT31;59999;51.676;22.650;2023-06-14T08:33:28;19.35;60.67
72126;SHT31;59999;51.676;22.650;2023-06-14T08:35:54;19.41;61.57
72126;SHT31;59999;51.676;22.650;2023-06-14T08:38:20;19.55;61.74
72126;SHT31;59999;51.676;22.650;2023-06-14T08:40:50;19.74;60.08
72126;SHT31;59999;51.676;22.650;2023-06-14T08:43:17;19.88;60.15
72126;SHT31;59999;51.676;22.650;2023-06-14T08:45:44;19.64;59.92
72126;SHT31;59999;51.676;22.650;2023-06-14T08:48:11;19.59;61.50
72126;SHT31;59999;51.676;22.650;2023-06-14T08:50:41;19.48;60.96
72126;SHT31;59999;51.676;22.650;2023-06-14T08:53:08;19.64;61.85
72126;SHT31;59999;51.676;22.650;2023-06-14T08:55:36;19.86;61.86
72126;SHT31;59999;51.676;22.650;2023-06-14T08:58:05;19.81;58.90
72126;SHT31;59999;51.676;22.650;2023-06-14T09:00:31;19.48;59.34
72126;SHT31;59999;51.676;22.650;2023-06-14T09:02:58;19.47;60.07
72126;SHT31;59999;51.676;22.650;2023-06-14T09:05:25;19.37;60.87
72126;SHT31;59999;51.676;22.650;2023-06-14T09:07:52;19.53;60.32
72126;SHT31;59999;51.676;22.650;2023-06-14T09:10:21;19.78;59.21
72126;SHT31;59999;51.676;22.650;2023-06-14T09:12:47;20.00;59.49
72126;SHT31;59999;51.676;22.650;2023-06-14T09:15:13;20.15;58.78
72126;SHT31;59999;51.676;22.650;2023-06-14T09:17:40;20.16;57.38
72126;SHT31;59999;51.676;22.650;2023-06-14T09:20:08;20.20;58.85
72126;SHT31;59999;51.676;22.650;2023-06-14T09:22:44;20.20;59.87
72126;SHT31;59999;51.676;22.650;2023-06-14T09:25:10;20.09;58.54
72126;SHT31;59999;51.676;22.650;2023-06-14T09:27:38;19.81;58.82
72126;SHT31;59999;51.676;22.650;2023-06-14T09:30:06;19.55;60.68
72126;SHT31;59999;51.676;22.650;2023-06-14T09:32:39;19.34;61.52
72126;SHT31;59999;51.676;22.650;2023-06-14T09:35:06;19.20;59.73
72126;SHT31;59999;51.676;22.650;2023-06-14T09:37:33;19.11;60.79
72126;SHT31;59999;51.676;22.650;2023-06-14T09:39:59;18.88;62.08
72126;SHT31;59999;51.676;22.650;2023-06-14T09:42:26;18.55;62.46
72126;SHT31;59999;51.676;22.650;2023-06-14T09:44:55;18.32;62.60
72126;SHT31;59999;51.676;22.650;2023-06-14T09:47:22;18.27;63.25
72126;SHT31;59999;51.676;22.650;2023-06-14T09:49:49;18.32;62.76
72126;SHT31;59999;51.676;22.650;2023-06-14T09:52:20;18.44;61.25
72126;SHT31;59999;51.676;22.650;2023-06-14T09:54:47;18.53;60.10
72126;SHT31;59999;51.676;22.650;2023-06-14T09:57:17;18.69;60.90
72126;SHT31;59999;51.676;22.650;2023-06-14T09:59:47;18.86;60.94
72126;SHT31;59999;51.676;22.650;2023-06-14T10:05:14;19.26;59.76
72126;SHT31;59999;51.676;22.650;2023-06-14T10:07:50;19.61;57.32
72126;SHT31;59999;51.676;22.650;2023-06-14T10:10:18;19.95;60.23
72126;SHT31;59999;51.676;22.650;2023-06-14T10:12:44;20.19;58.54
72126;SHT31;59999;51.676;22.650;2023-06-14T10:15:17;20.33;59.17
72126;SHT31;59999;51.676;22.650;2023-06-14T10:17:50;20.44;59.18
72126;SHT31;59999;51.676;22.650;2023-06-14T10:23:20;20.85;56.59
72126;SHT31;59999;51.676;22.650;2023-06-14T10:25:56;20.95;55.88
72126;SHT31;59999;51.676;22.650;2023-06-14T10:28:22;21.05;56.13
72126;SHT31;59999;51.676;22.650;2023-06-14T10:31:08;21.14;55.29
72126;SHT31;59999;51.676;22.650;2023-06-14T10:39:17;21.26;56.53
72126;SHT31;59999;51.676;22.650;2023-06-14T10:41:54;21.35;54.44
72126;SHT31;59999;51.676;22.650;2023-06-14T10:46:47;20.98;57.36
72126;SHT31;59999;51.676;22.650;2023-06-14T10:49:17;20.81;59.21
72126;SHT31;59999;51.676;22.650;2023-06-14T10:51:50;20.40;59.35
72126;SHT31;59999;51.676;22.650;2023-06-14T10:54:20;20.13;60.21
72126;SHT31;59999;51.676;22.650;2023-06-14T10:56:48;19.86;60.13
72126;SHT31;59999;51.676;22.650;2023-06-14T10:59:15;19.75;60.33
72126;SHT31;59999;51.676;22.650;2023-06-14T11:04:52;19.67;61.99
72126;SHT31;59999;51.676;22.650;2023-06-14T11:07:34;19.58;61.43
72126;SHT31;59999;51.676;22.650;2023-06-14T11:10:10;19.26;62.00
72126;SHT31;59999;51.676;22.650;2023-06-14T11:12:48;19.26;63.38
72126;SHT31;59999;51.676;22.650;2023-06-14T11:15:14;19.24;62.08
72126;SHT31;59999;51.676;22.650;2023-06-14T11:17:51;19.19;62.14
72126;SHT31;59999;51.676;22.650;2023-06-14T11:20:19;19.11;63.71
72126;SHT31;59999;51.676;22.650;2023-06-14T11:22:45;19.16;64.08
72126;SHT31;59999;51.676;22.650;2023-06-14T11:25:12;19.21;64.76
72126;SHT31;59999;51.676;22.650;2023-06-14T11:27:38;19.16;65.83
72126;SHT31;59999;51.676;22.650;2023-06-14T11:30:07;19.07;65.93
72126;SHT31;59999;51.676;22.650;2023-06-14T11:32:36;18.89;64.98
72126;SHT31;59999;51.676;22.650;2023-06-14T11:35:03;18.72;66.37
72126;SHT31;59999;51.676;22.650;2023-06-14T11:37:31;18.59;66.68
72126;SHT31;59999;51.676;22.650;2023-06-14T11:40:00;18.41;67.10
72126;SHT31;59999;51.676;22.650;2023-06-14T11:42:27;18.35;68.16
72126;SHT31;59999;51.676;22.650;2023-06-14T11:44:55;18.32;67.97
72126;SHT31;59999;51.676;22.650;2023-06-14T11:47:22;18.05;68.54
72126;SHT31;59999;51.676;22.650;2023-06-14T11:49:48;17.96;68.95
72126;SHT31;59999;51.676;22.650;2023-06-14T11:52:14;17.89;68.73
72126;SHT31;59999;51.676;22.650;2023-06-14T11:54:41;17.79;69.44
72126;SHT31;59999;51.676;22.650;2023-06-14T11:57:07;17.70;69.92
72126;SHT31;59999;51.676;22.650;2023-06-14T11:59:51;17.63;70.02
72126;SHT31;59999;51.676;22.650;2023-06-14T12:02:19;17.67;70.43
72126;SHT31;59999;51.676;22.650;2023-06-14T12:04:48;17.73;69.98
72126;SHT31;59999;51.676;22.650;2023-06-14T12:07:15;17.69;69.08
72126;SHT31;59999;51.676;22.650;2023-06-14T12:12:37;17.53;69.57
72126;SHT31;59999;51.676;22.650;2023-06-14T12:15:22;17.52;69.71
72126;SHT31;59999;51.676;22.650;2023-06-14T12:17:49;17.49;69.40
72126;SHT31;59999;51.676;22.650;2023-06-14T12:20:17;17.42;69.70
72126;SHT31;59999;51.676;22.650;2023-06-14T12:22:55;17.39;70.85
72126;SHT31;59999;51.676;22.650;2023-06-14T12:25:34;17.35;69.83
72126;SHT31;59999;51.676;22.650;2023-06-14T12:28:06;17.31;69.86
72126;SHT31;59999;51.676;22.650;2023-06-14T12:30:33;17.25;69.86
72126;SHT31;59999;51.676;22.650;2023-06-14T12:33:04;17.22;70.16
72126;SHT31;59999;51.676;22.650;2023-06-14T12:35:30;17.19;70.64
72126;SHT31;59999;51.676;22.650;2023-06-14T12:37:56;17.17;70.38
72126;SHT31;59999;51.676;22.650;2023-06-14T12:40:22;17.10;70.66
72126;SHT31;59999;51.676;22.650;2023-06-14T12:42:48;17.08;71.41
72126;SHT31;59999;51.676;22.650;2023-06-14T12:45:15;17.05;71.35
72126;SHT31;59999;51.676;22.650;2023-06-14T12:47:41;17.03;71.60
72126;SHT31;59999;51.676;22.650;2023-06-14T12:50:08;17.07;71.58
72126;SHT31;59999;51.676;22.650;2023-06-14T12:52:34;17.07;71.07
72126;SHT31;59999;51.676;22.650;2023-06-14T12:55:06;17.08;71.64
72126;SHT31;59999;51.676;22.650;2023-06-14T12:57:32;17.10;71.52
72126;SHT31;59999;51.676;22.650;2023-06-14T12:59:59;17.14;71.84
72126;SHT31;59999;51.676;22.650;2023-06-14T13:02:26;17.08;71.90
72126;SHT31;59999;51.676;22.650;2023-06-14T13:04:53;17.07;72.12
72126;SHT31;59999;51.676;22.650;2023-06-14T13:07:19;17.07;71.04
72126;SHT31;59999;51.676;22.650;2023-06-14T13:09:45;17.15;72.31
72126;SHT31;59999;51.676;22.650;2023-06-14T13:12:11;17.32;71.38
72126;SHT31;59999;51.676;22.650;2023-06-14T13:14:38;17.47;71.57
72126;SHT31;59999;51.676;22.650;2023-06-14T13:17:08;17.56;70.80
72126;SHT31;59999;51.676;22.650;2023-06-14T13:19:34;17.66;71.21
72126;SHT31;59999;51.676;22.650;2023-06-14T13:22:00;17.72;70.79
72126;SHT31;59999;51.676;22.650;2023-06-14T13:24:26;17.76;70.43
72126;SHT31;59999;51.676;22.650;2023-06-14T13:26:54;17.80;70.32
72126;SHT31;59999;51.676;22.650;2023-06-14T13:29:20;17.80;70.60
72126;SHT31;59999;51.676;22.650;2023-06-14T13:31:46;17.94;70.83
72126;SHT31;59999;51.676;22.650;2023-06-14T13:34:12;18.08;69.85
72126;SHT31;59999;51.676;22.650;2023-06-14T13:36:39;18.08;68.12
72126;SHT31;59999;51.676;22.650;2023-06-14T13:39:04;18.15;68.86
72126;SHT31;59999;51.676;22.650;2023-06-14T13:41:31;18.07;68.75
72126;SHT31;59999;51.676;22.650;2023-06-14T13:43:59;18.07;69.44
72126;SHT31;59999;51.676;22.650;2023-06-14T13:46:26;18.03;69.27
72126;SHT31;59999;51.676;22.650;2023-06-14T13:48:52;18.04;68.96
72126;SHT31;59999;51.676;22.650;2023-06-14T13:51:18;18.03;69.86
72126;SHT31;59999;51.676;22.650;2023-06-14T13:53:48;18.14;68.91
72126;SHT31;59999;51.676;22.650;2023-06-14T13:56:15;18.13;68.09
72126;SHT31;59999;51.676;22.650;2023-06-14T13:58:41;18.14;68.85
72126;SHT31;59999;51.676;22.650;2023-06-14T14:01:08;18.18;68.99
72126;SHT31;59999;51.676;22.650;2023-06-14T14:03:34;18.18;68.63
72126;SHT31;59999;51.676;22.650;2023-06-14T14:06:01;18.14;67.37
72126;SHT31;59999;51.676;22.650;2023-06-14T14:08:28;18.10;68.03
72126;SHT31;59999;51.676;22.650;2023-06-14T14:10:54;18.14;68.14
72126;SHT31;59999;51.676;22.650;2023-06-14T14:13:21;18.11;68.53
72126;SHT31;59999;51.676;22.650;2023-06-14T14:15:48;18.14;67.71
72126;SHT31;59999;51.676;22.650;2023-06-14T14:18:14;18.04;67.32
72126;SHT31;59999;51.676;22.650;2023-06-14T14:20:41;17.94;67.51
72126;SHT31;59999;51.676;22.650;2023-06-14T14:23:07;17.91;68.04
72126;SHT31;59999;51.676;22.650;2023-06-14T14:25:33;17.82;67.49
72126;SHT31;59999;51.676;22.650;2023-06-14T14:27:59;17.82;68.53
72126;SHT31;59999;51.676;22.650;2023-06-14T14:30:25;17.80;69.39
72126;SHT31;59999;51.676;22.650;2023-06-14T14:32:51;17.74;69.95
72126;SHT31;59999;51.676;22.650;2023-06-14T14:35:18;17.69;69.80
72126;SHT31;59999;51.676;22.650;2023-06-14T14:37:44;17.67;69.79
72126;SHT31;59999;51.676;22.650;2023-06-14T14:40:11;17.59;70.50
72126;SHT31;59999;51.676;22.650;2023-06-14T14:42:37;17.55;71.19
72126;SHT31;59999;51.676;22.650;2023-06-14T14:45:04;17.50;71.83
72126;SHT31;59999;51.676;22.650;2023-06-14T14:47:30;17.46;71.54
72126;SHT31;59999;51.676;22.650;2023-06-14T14:49:56;17.46;71.45
72126;SHT31;59999;51.676;22.650;2023-06-14T14:52:22;17.47;71.42
72126;SHT31;59999;51.676;22.650;2023-06-14T14:54:48;17.56;72.24
72126;SHT31;59999;51.676;22.650;2023-06-14T14:57:14;17.66;72.65
72126;SHT31;59999;51.676;22.650;2023-06-14T14:59:40;17.79;71.45
72126;SHT31;59999;51.676;22.650;2023-06-14T15:02:06;17.96;71.47
72126;SHT31;59999;51.676;22.650;2023-06-14T15:04:32;18.23;72.15
72126;SHT31;59999;51.676;22.650;2023-06-14T15:06:58;19.23;70.22
72126;SHT31;59999;51.676;22.650;2023-06-14T15:09:24;20.81;67.61
72126;SHT31;59999;51.676;22.650;2023-06-14T15:11:50;22.22;60.95
72126;SHT31;59999;51.676;22.650;2023-06-14T15:14:16;22.75;55.62
72126;SHT31;59999;51.676;22.650;2023-06-14T15:16:42;23.48;53.73
72126;SHT31;59999;51.676;22.650;2023-06-14T15:19:08;23.43;51.79
72126;SHT31;59999;51.676;22.650;2023-06-14T15:21:34;23.93;52.26
72126;SHT31;59999;51.676;22.650;2023-06-14T15:24:00;24.02;49.49
72126;SHT31;59999;51.676;22.650;2023-06-14T15:26:27;23.53;51.90
72126;SHT31;59999;51.676;22.650;2023-06-14T15:28:54;23.10;52.19
72126;SHT31;59999;51.676;22.650;2023-06-14T15:31:20;22.79;53.44
72126;SHT31;59999;51.676;22.650;2023-06-14T15:33:47;22.68;53.46
72126;SHT31;59999;51.676;22.650;2023-06-14T15:36:12;22.45;54.68
72126;SHT31;59999;51.676;22.650;2023-06-14T15:38:39;23.04;52.90
72126;SHT31;59999;51.676;22.650;2023-06-14T15:41:04;23.50;50.45
72126;SHT31;59999;51.676;22.650;2023-06-14T15:43:31;23.27;51.71